Terminal Aerodrome Forecast
Issued by NWS

Home | Current Version | Previous Version | Text Only | Print | Product List | Glossary On
Versions: 1 2 3 4 5 6 7 8 9 10 11 12 13 14 15
000
FTUS43 KAPX 012331
TAFAPN
TAF
KAPN 012331Z 0200/0224 24007KT P6SM BKN035 OVC100
     FM020500 28009KT P6SM VCSH OVC026
     FM021000 29007KT P6SM BKN028
     FM021400 29012KT P6SM SCT030
     FM022200 28006KT P6SM FEW035=

USA.gov is the U.S. government's official web portal to all federal, state and local government web resources and services.